createdAt,value
2018-12-29T01:16:20.830Z,25.23
2018-12-29T01:45:49.202Z,26.07
2018-12-29T01:48:36.756Z,27.63
2018-12-29T06:36:36.931Z,35.80
2018-12-29T06:39:24.408Z,32.80
2018-12-29T07:29:27.622Z,38.03
2018-12-29T07:32:26.819Z,38.77
2018-12-29T09:01:16.395Z,34.67
2018-12-29T09:04:03.876Z,36.37
2018-12-29T09:09:33.606Z,34.37
2018-12-29T09:12:01.753Z,38.50
2018-12-29T09:17:23.518Z,36.73
2018-12-29T09:20:11.194Z,34.43
2018-12-29T09:40:50.370Z,35.73
2018-12-29T09:43:18.552Z,38.00
2018-12-29T09:46:06.280Z,32.53
2018-12-29T09:48:53.806Z,37.37
2018-12-29T10:00:26.246Z,33.27
2018-12-29T10:03:13.722Z,34.73
2018-12-29T10:14:43.790Z,34.07
2018-12-29T10:17:31.315Z,35.23
2018-12-29T10:25:54.190Z,34.30
2018-12-29T10:28:41.732Z,32.53
2018-12-29T10:34:09.228Z,31.00
2018-12-29T10:36:56.710Z,30.50
2018-12-29T10:45:21.718Z,31.57
2018-12-29T10:47:49.896Z,29.23
2018-12-29T10:53:11.154Z,31.83
2018-12-29T10:55:39.293Z,33.27
2018-12-29T10:58:26.920Z,29.47
2018-12-29T11:10:08.784Z,28.63
2018-12-29T11:12:36.918Z,31.13
2018-12-29T11:15:24.415Z,33.10
2018-12-29T11:18:11.896Z,30.53
2018-12-29T11:20:40.467Z,28.37
2018-12-29T11:23:08.614Z,26.67
2018-12-29T11:25:56.402Z,29.67
2018-12-29T11:28:43.879Z,30.87
2018-12-29T11:34:14.315Z,29.40
2018-12-29T11:37:01.871Z,28.57
2018-12-29T11:39:30.305Z,28.57
2018-12-29T11:41:58.463Z,33.13
2018-12-29T11:44:45.959Z,30.70
2018-12-29T11:47:33.438Z,27.20
2018-12-29T11:53:00.819Z,28.77
2018-12-29T11:55:28.967Z,29.10
2018-12-29T11:57:57.130Z,29.60
2018-12-29T12:00:25.538Z,26.17
2018-12-29T12:02:53.702Z,28.77
2018-12-29T12:05:41.329Z,30.83
2018-12-29T12:08:28.896Z,32.70
2018-12-29T12:19:59.099Z,29.83
2018-12-29T12:22:27.253Z,27.00
2018-12-29T12:25:14.794Z,27.70
2018-12-29T12:28:03.994Z,28.93
2018-12-29T12:36:32.862Z,31.17
2018-12-29T12:39:01.023Z,28.50
2018-12-29T12:41:48.937Z,30.23
2018-12-29T12:44:17.132Z,27.93
2018-12-29T12:47:04.847Z,29.87
2018-12-29T12:49:33.345Z,28.40
2018-12-29T12:52:20.853Z,29.33
2018-12-29T12:55:08.457Z,28.60
2018-12-29T13:00:38.784Z,29.20
2018-12-29T13:03:26.640Z,34.00
2018-12-29T13:05:55.019Z,28.13
2018-12-29T13:08:23.161Z,31.03
2018-12-29T13:10:51.389Z,28.53
2018-12-29T13:13:19.659Z,31.10
2018-12-29T13:16:07.179Z,26.07
2018-12-29T13:18:35.622Z,28.80
2018-12-29T13:21:03.780Z,32.03
2018-12-29T13:23:51.571Z,27.93
2018-12-29T13:26:39.050Z,29.23
2018-12-29T13:29:07.231Z,30.13
2018-12-29T13:31:35.454Z,29.33
2018-12-29T13:34:23.047Z,30.33
2018-12-29T13:37:10.633Z,27.63
2018-12-29T13:39:39.098Z,28.33
2018-12-29T13:42:26.663Z,31.20
2018-12-29T13:47:57.316Z,28.03
2018-12-29T13:50:25.492Z,28.53
2018-12-29T13:53:13.183Z,27.50
2018-12-29T13:56:00.700Z,27.93
2018-12-29T14:01:27.991Z,33.47
2018-12-29T14:04:15.499Z,27.57
2018-12-29T14:07:08.684Z,27.73
2018-12-29T14:09:36.841Z,31.67
2018-12-29T14:12:04.993Z,28.73
2018-12-29T14:14:52.498Z,28.90
2018-12-29T14:17:40.011Z,30.83
2018-12-29T14:20:08.629Z,30.50
2018-12-29T14:22:56.255Z,28.50
2018-12-29T14:27:55.332Z,30.90
2018-12-29T14:30:23.549Z,29.83
2018-12-29T14:32:51.696Z,30.63
2018-12-29T14:35:20.023Z,33.23
2018-12-29T14:37:48.176Z,31.13
2018-12-29T14:40:16.609Z,28.77
2018-12-29T14:42:44.854Z,31.53
2018-12-29T14:45:13.002Z,33.00
2018-12-29T14:47:41.142Z,31.23
2018-12-29T14:50:09.313Z,34.80
2018-12-29T14:52:37.731Z,31.07
2018-12-29T14:55:05.886Z,30.80
2018-12-29T14:57:34.204Z,32.80
2018-12-29T15:00:02.362Z,31.83
2018-12-29T15:02:30.506Z,31.97
2018-12-29T15:04:59.179Z,32.80
2018-12-29T15:07:27.323Z,35.70
2018-12-29T15:09:55.477Z,35.33
2018-12-29T15:12:23.714Z,37.17
2018-12-29T15:14:52.241Z,37.50
2018-12-29T15:17:20.415Z,34.40
2018-12-29T15:19:49.074Z,37.83
2018-12-29T15:22:17.314Z,39.97
2018-12-29T15:24:45.729Z,33.20
2018-12-29T15:27:14.119Z,34.97
2018-12-29T15:29:42.388Z,34.87
2018-12-29T15:32:10.902Z,36.27
2018-12-29T15:34:39.078Z,35.53
2018-12-29T15:37:07.210Z,37.53
2018-12-29T15:39:35.731Z,32.80
2018-12-29T15:42:03.941Z,33.70
2018-12-29T15:44:51.494Z,34.27
2018-12-29T15:53:22.715Z,34.07
2018-12-29T15:55:50.944Z,35.53
2018-12-29T15:58:19.470Z,36.73
2018-12-29T16:00:47.778Z,34.10
2018-12-29T16:03:35.543Z,34.20
2018-12-29T16:06:04.117Z,36.43
2018-12-29T16:08:32.322Z,32.77
2018-12-29T16:11:00.549Z,34.87
2018-12-29T16:13:28.697Z,33.40
2018-12-29T16:16:16.259Z,32.70
2018-12-29T16:21:47.038Z,34.10
2018-12-29T16:24:15.470Z,30.83
2018-12-29T16:26:43.690Z,34.10
2018-12-29T16:29:12.130Z,32.37
2018-12-29T16:31:40.271Z,31.93
2018-12-29T16:34:29.906Z,30.30
2018-12-29T16:36:58.235Z,34.43
2018-12-29T16:39:46.171Z,31.93
2018-12-29T16:42:14.605Z,32.33
2018-12-29T16:45:02.109Z,29.97
2018-12-29T16:47:30.253Z,31.83
2018-12-29T16:49:58.404Z,34.17
2018-12-29T16:52:26.560Z,34.20
2018-12-29T16:54:54.774Z,31.67
2018-12-29T17:00:16.847Z,31.17
2018-12-29T17:02:44.995Z,32.30
2018-12-29T17:05:34.273Z,32.33
2018-12-29T17:08:02.789Z,30.40
2018-12-29T17:10:50.635Z,31.33
2018-12-29T17:31:32.381Z,29.77
2018-12-29T17:34:00.918Z,30.87
2018-12-29T17:36:29.074Z,32.67
2018-12-29T17:38:57.602Z,34.50
2018-12-29T17:41:25.837Z,31.00
2018-12-29T17:44:13.542Z,33.20
2018-12-29T17:49:22.752Z,31.63
2018-12-29T17:51:50.929Z,33.67
2018-12-29T17:54:19.139Z,31.67
2018-12-29T17:56:47.350Z,30.43
2018-12-29T17:59:15.760Z,34.73
2018-12-29T18:01:44.191Z,31.33
2018-12-29T18:04:12.717Z,33.70
2018-12-29T18:06:40.925Z,30.03
2018-12-29T18:09:09.141Z,31.50
2018-12-29T18:11:37.301Z,30.97
2018-12-29T18:14:05.516Z,35.00
2018-12-29T18:16:33.759Z,30.80
2018-12-29T18:19:02.238Z,30.67
2018-12-29T18:21:30.466Z,32.23
2018-12-29T18:23:58.686Z,31.67
2018-12-29T18:26:27.167Z,27.00
2018-12-29T18:28:55.394Z,28.03
2018-12-29T18:31:23.609Z,28.90
2018-12-29T18:33:51.966Z,34.33
2018-12-29T18:36:20.204Z,29.03
2018-12-29T18:38:48.421Z,33.90
2018-12-29T18:41:16.889Z,31.07
2018-12-29T18:43:45.033Z,28.67
2018-12-29T18:46:13.166Z,28.00
2018-12-29T18:48:41.689Z,29.47
2018-12-29T18:51:09.907Z,29.23
2018-12-29T18:53:38.445Z,25.43
2018-12-29T18:56:06.791Z,27.27
2018-12-29T18:58:35.007Z,25.43
2018-12-29T19:01:03.158Z,26.67
2018-12-29T19:03:31.505Z,26.67
2018-12-29T19:05:59.914Z,27.63
2018-12-29T19:08:28.053Z,27.03
2018-12-29T19:10:56.362Z,27.63
2018-12-29T19:13:24.687Z,27.00
2018-12-29T19:15:52.954Z,28.17
2018-12-29T19:18:21.303Z,31.23
2018-12-29T19:20:51.665Z,25.93
2018-12-29T19:23:19.693Z,27.93
2018-12-29T19:25:48.467Z,27.13
2018-12-29T19:28:36.383Z,27.33
2018-12-29T19:31:04.846Z,28.10
2018-12-29T19:33:52.815Z,27.70
2018-12-29T19:36:21.383Z,27.00
2018-12-29T19:38:49.657Z,28.43
2018-12-29T19:41:17.988Z,25.87
2018-12-29T19:44:06.029Z,25.30
2018-12-29T19:46:53.923Z,26.17
2018-12-29T19:52:23.815Z,26.43
2018-12-29T19:54:52.219Z,26.10
2018-12-29T19:57:20.656Z,25.70
2018-12-29T19:59:49.112Z,25.90
2018-12-29T20:02:17.562Z,26.97
2018-12-29T20:05:05.578Z,27.77
2018-12-29T20:07:53.188Z,27.87
2018-12-29T20:10:21.431Z,28.07
2018-12-29T20:13:08.987Z,26.33
2018-12-29T20:16:02.301Z,24.77
2018-12-29T20:18:30.514Z,23.97
2018-12-29T20:21:18.365Z,24.23
2018-12-29T20:23:46.607Z,24.73
2018-12-29T20:26:14.798Z,23.33
2018-12-29T20:28:43.033Z,22.40
2018-12-29T20:31:11.450Z,22.33
2018-12-29T20:33:39.599Z,22.73
2018-12-29T20:36:27.197Z,21.33
2018-12-29T20:45:09.242Z,22.33
2018-12-29T20:47:37.464Z,22.70
2018-12-29T20:50:09.610Z,23.37
2018-12-29T20:52:55.674Z,22.70
2018-12-29T20:55:43.535Z,21.50
2018-12-29T21:10:15.434Z,23.30
2018-12-29T21:12:43.578Z,22.70
2018-12-29T21:15:11.826Z,21.97
2018-12-29T21:18:01.201Z,22.33
2018-12-29T21:20:48.786Z,24.63
2018-12-29T21:26:18.789Z,23.27
2018-12-29T21:29:06.419Z,22.13
2018-12-29T21:34:33.298Z,22.50
2018-12-29T21:37:21.235Z,22.37
2018-12-29T21:39:49.842Z,23.97
2018-12-29T21:42:18.003Z,25.57
2018-12-29T21:44:46.235Z,25.20
2018-12-29T21:47:34.024Z,25.87
2018-12-29T21:50:25.300Z,28.13
2018-12-29T21:55:50.932Z,23.37
2018-12-29T21:58:19.082Z,24.97
2018-12-29T22:01:06.627Z,22.37
2018-12-29T22:03:34.778Z,22.87
2018-12-29T22:06:02.915Z,22.17
2018-12-29T22:08:50.591Z,23.20
2018-12-29T22:14:31.782Z,22.60
2018-12-29T22:17:19.330Z,29.23
2018-12-29T22:25:48.352Z,24.83
2018-12-29T22:28:36.095Z,25.63
2018-12-29T22:34:06.059Z,28.20
2018-12-29T22:36:53.617Z,31.30
2018-12-29T22:42:15.413Z,27.27
2018-12-29T22:45:03.019Z,27.23
2018-12-29T22:53:45.508Z,22.10
2018-12-29T22:56:33.104Z,27.37
2018-12-29T23:02:03.309Z,26.33
2018-12-29T23:04:51.005Z,18.80
2018-12-29T23:16:19.002Z,20.00
2018-12-29T23:19:06.824Z,19.07
2018-12-29T23:33:34.662Z,18.30
2018-12-29T23:36:22.223Z,19.60
2018-12-29T23:56:50.366Z,17.10
2018-12-29T23:59:39.612Z,16.37
